Porteiras, Brazil
Current Conditions -  °F | °C
As of 11:00 AM on Thursday 18 Dec 2014 (Local Time) from SBJU Reporting Station
Broken Clouds Broken Clouds  
Wind Chill: 79°   Ceiling: 2000
Heat Index: 82°   Visibility: 6mi
Dew Point: 75°   Wind: 7mph
Humidity: 89%   Direction: 170°S
Pressure: 30.03"   Gusts: NA
Location:  7.53°S, 39.12°W
Report Text: SBJU 181400Z 17006KT 9999 SCT010 BKN020 26/24 Q1017
Loading
Personal Weather Stations






























Interactive Weather Map New forecast layout! Learn more

10-Day Weather Forecast

Advertisements
Track Severe Weather on mobile